createdAt,value
2023-05-08T00:00:47.556Z,1.70
2023-05-08T00:03:14.335Z,1.40
2023-05-08T00:05:44.067Z,1.30
2023-05-08T00:08:10.742Z,1.40
2023-05-08T00:10:37.321Z,1.40
2023-05-08T00:13:04.186Z,1.40
2023-05-08T00:15:30.921Z,1.60
2023-05-08T00:17:57.596Z,1.20
2023-05-08T00:20:24.454Z,1.30
2023-05-08T00:22:51.041Z,1.20
2023-05-08T00:25:17.780Z,1.70
2023-05-08T00:27:44.400Z,1.50
2023-05-08T00:30:11.657Z,1.50
2023-05-08T00:32:38.563Z,1.40
2023-05-08T00:35:06.084Z,1.10
2023-05-08T00:37:32.697Z,1.00
2023-05-08T00:39:59.329Z,1.10
2023-05-08T00:42:26.008Z,1.20
2023-05-08T00:44:52.601Z,1.00
2023-05-08T00:47:22.561Z,1.40
2023-05-08T00:49:49.849Z,1.30
2023-05-08T00:52:17.874Z,1.10
2023-05-08T00:54:45.236Z,1.00
2023-05-08T00:57:12.597Z,1.10
2023-05-08T00:59:41.597Z,1.10
2023-05-08T01:02:09.967Z,1.60
2023-05-08T01:04:37.226Z,1.10
2023-05-08T01:07:03.879Z,1.10
2023-05-08T01:09:30.547Z,1.00
2023-05-08T01:12:40.756Z,1.10
2023-05-08T01:15:24.054Z,0.90
2023-05-08T01:18:28.112Z,0.80
2023-05-08T01:21:07.089Z,0.60
2023-05-08T01:24:12.084Z,0.90
2023-05-08T01:27:00.600Z,0.90
2023-05-08T01:30:08.912Z,0.80
2023-05-08T01:32:43.794Z,0.70
2023-05-08T01:35:40.755Z,0.70
2023-05-08T01:38:13.176Z,0.80
2023-05-08T01:41:01.626Z,0.80
2023-05-08T01:43:42.453Z,0.70
2023-05-08T01:46:14.820Z,0.90
2023-05-08T01:48:50.757Z,0.90
2023-05-08T01:51:21.822Z,0.80
2023-05-08T01:53:58.608Z,0.60
2023-05-08T01:56:28.649Z,0.70
2023-05-08T01:58:58.171Z,0.70
2023-05-08T02:01:26.358Z,0.50
2023-05-08T02:03:56.663Z,0.40
2023-05-08T02:06:26.887Z,0.40
2023-05-08T02:08:55.448Z,0.50
2023-05-08T02:11:25.037Z,0.70
2023-05-08T02:13:54.007Z,0.70
2023-05-08T02:16:22.169Z,0.70
2023-05-08T02:18:53.194Z,0.50
2023-05-08T02:21:22.408Z,0.50
2023-05-08T02:23:51.196Z,0.70
2023-05-08T02:26:19.357Z,0.50
2023-05-08T02:28:47.270Z,0.60
2023-05-08T02:31:14.533Z,0.40
2023-05-08T02:33:42.662Z,0.60
2023-05-08T02:36:13.244Z,0.70
2023-05-08T02:38:44.182Z,0.70
2023-05-08T02:41:14.311Z,0.70
2023-05-08T02:43:42.243Z,0.60
2023-05-08T02:46:39.681Z,0.60
2023-05-08T02:49:26.837Z,0.70
2023-05-08T02:52:00.062Z,0.60
2023-05-08T02:54:44.415Z,0.70
2023-05-08T02:57:22.155Z,0.60
2023-05-08T02:59:59.616Z,0.70
2023-05-08T03:02:28.072Z,0.70
2023-05-08T03:04:59.588Z,0.60
2023-05-08T03:07:29.076Z,0.70
2023-05-08T03:10:03.071Z,0.70
2023-05-08T03:12:32.854Z,0.70
2023-05-08T03:15:24.127Z,0.60
2023-05-08T03:17:54.965Z,0.80
2023-05-08T03:20:24.998Z,0.80
2023-05-08T03:22:55.523Z,0.80
2023-05-08T03:25:23.317Z,0.90
2023-05-08T03:27:52.097Z,0.90
2023-05-08T03:30:20.681Z,0.60
2023-05-08T03:32:58.828Z,0.70
2023-05-08T03:35:27.261Z,0.80
2023-05-08T03:37:54.926Z,0.60
2023-05-08T03:40:21.902Z,0.90
2023-05-08T03:42:49.969Z,0.80
2023-05-08T03:45:18.938Z,0.80
2023-05-08T03:47:47.777Z,0.80
2023-05-08T03:50:15.841Z,1.00
2023-05-08T03:52:43.449Z,0.90
2023-05-08T03:55:10.449Z,1.10
2023-05-08T03:57:49.248Z,1.00
2023-05-08T04:00:29.303Z,1.10
2023-05-08T04:03:05.333Z,1.00
2023-05-08T04:05:37.851Z,1.10
2023-05-08T04:08:29.129Z,1.10
2023-05-08T04:11:10.067Z,1.10
2023-05-08T04:13:46.019Z,0.90
2023-05-08T04:16:20.214Z,1.00
2023-05-08T04:18:49.755Z,0.90
2023-05-08T04:21:23.175Z,0.90
2023-05-08T04:23:51.582Z,0.90
2023-05-08T04:26:19.571Z,1.00
2023-05-08T04:28:47.494Z,1.10
2023-05-08T04:31:16.558Z,1.00
2023-05-08T04:33:45.146Z,1.30
2023-05-08T04:36:13.686Z,1.70
2023-05-08T04:38:41.613Z,1.20
2023-05-08T04:41:08.708Z,1.40
2023-05-08T04:43:38.582Z,1.20
2023-05-08T04:46:06.479Z,1.00
2023-05-08T04:48:34.078Z,1.40
2023-05-08T04:51:01.184Z,1.00
2023-05-08T04:53:28.279Z,1.00
2023-05-08T04:55:55.030Z,1.20
2023-05-08T04:58:22.062Z,1.00
2023-05-08T05:00:49.112Z,1.10
2023-05-08T05:03:15.914Z,0.90
2023-05-08T05:05:42.824Z,1.10
2023-05-08T05:08:09.664Z,1.10
2023-05-08T05:10:39.610Z,1.00
2023-05-08T05:13:06.436Z,1.10
2023-05-08T05:15:33.179Z,1.10
2023-05-08T05:18:00.114Z,1.20
2023-05-08T05:20:27.011Z,1.30
2023-05-08T05:22:53.703Z,1.20
2023-05-08T05:25:20.390Z,1.30
2023-05-08T05:27:47.187Z,1.20
2023-05-08T05:30:14.259Z,1.10
2023-05-08T05:32:41.585Z,1.30
2023-05-08T05:35:09.939Z,1.30
2023-05-08T05:37:37.280Z,1.40
2023-05-08T05:40:04.511Z,1.30
2023-05-08T05:42:31.660Z,1.40
2023-05-08T05:44:59.130Z,1.40
2023-05-08T05:47:25.951Z,1.10
2023-05-08T05:49:52.681Z,1.60
2023-05-08T05:52:19.507Z,1.20
2023-05-08T05:54:46.804Z,1.20
2023-05-08T05:57:14.141Z,1.10
2023-05-08T05:59:41.588Z,1.50
2023-05-08T06:02:10.622Z,1.50
2023-05-08T06:04:38.127Z,1.10
2023-05-08T06:07:07.002Z,1.20
2023-05-08T06:09:33.709Z,1.60
2023-05-08T06:12:00.618Z,1.10
2023-05-08T06:14:27.269Z,1.30
2023-05-08T06:16:53.967Z,1.40
2023-05-08T06:19:20.686Z,1.20
2023-05-08T06:21:47.255Z,1.30
2023-05-08T06:24:13.890Z,1.30
2023-05-08T06:26:40.546Z,1.20
2023-05-08T06:29:07.189Z,1.40
2023-05-08T06:31:33.857Z,1.10
2023-05-08T06:34:00.525Z,1.10
2023-05-08T06:36:27.366Z,1.20
2023-05-08T06:38:54.081Z,1.10
2023-05-08T06:41:21.959Z,1.20
2023-05-08T06:43:48.641Z,1.30
2023-05-08T06:46:16.234Z,1.60
2023-05-08T06:48:42.883Z,1.40
2023-05-08T06:51:09.453Z,1.30
2023-05-08T06:53:36.099Z,1.70
2023-05-08T06:56:02.696Z,1.30
2023-05-08T06:58:31.475Z,1.30
2023-05-08T07:01:01.882Z,1.50
2023-05-08T07:03:28.600Z,1.20
2023-05-08T07:05:55.829Z,1.30
2023-05-08T07:08:22.556Z,1.50
2023-05-08T07:10:49.404Z,2.10
2023-05-08T07:13:20.219Z,1.40
2023-05-08T07:15:47.169Z,4.60
2023-05-08T07:18:14.302Z,1.90
2023-05-08T07:20:41.024Z,1.50
2023-05-08T07:23:07.802Z,1.60
2023-05-08T07:25:34.418Z,1.70
2023-05-08T07:28:01.426Z,1.40
2023-05-08T07:30:28.376Z,1.50
2023-05-08T07:32:55.044Z,1.50
2023-05-08T07:35:22.253Z,1.70
2023-05-08T07:37:48.940Z,2.10
2023-05-08T07:40:15.925Z,2.10
2023-05-08T07:42:43.850Z,2.10
2023-05-08T07:45:13.270Z,2.30
2023-05-08T07:47:50.191Z,2.10
2023-05-08T07:50:17.766Z,1.90
2023-05-08T07:52:45.929Z,1.90
2023-05-08T07:55:14.364Z,2.00
2023-05-08T07:57:43.650Z,3.00
2023-05-08T08:00:13.922Z,2.50
2023-05-08T08:02:41.760Z,2.40
2023-05-08T08:05:09.166Z,2.40
2023-05-08T08:07:36.010Z,2.20
2023-05-08T08:10:04.615Z,2.80
2023-05-08T08:12:32.099Z,2.90
2023-05-08T08:14:58.826Z,2.90
2023-05-08T08:17:28.473Z,2.90
2023-05-08T08:19:56.585Z,3.10
2023-05-08T08:22:24.565Z,3.20
2023-05-08T08:24:53.345Z,3.30
2023-05-08T08:27:21.821Z,3.80
2023-05-08T08:29:48.479Z,3.70
2023-05-08T08:32:15.080Z,3.70
2023-05-08T08:34:41.649Z,3.90
2023-05-08T08:37:08.317Z,3.80
2023-05-08T08:39:35.055Z,4.20
2023-05-08T08:42:02.057Z,4.00
2023-05-08T08:44:28.710Z,5.00
2023-05-08T08:47:00.123Z,5.00
2023-05-08T08:49:32.139Z,4.40
2023-05-08T08:52:03.540Z,4.70
2023-05-08T08:54:34.967Z,4.70
2023-05-08T08:57:08.091Z,4.80
2023-05-08T08:59:38.764Z,4.80
2023-05-08T09:02:15.089Z,5.20
2023-05-08T09:04:41.816Z,5.20
2023-05-08T09:07:10.198Z,5.60
2023-05-08T09:09:40.996Z,5.50
2023-05-08T09:12:07.990Z,5.40
2023-05-08T09:14:34.722Z,5.00
2023-05-08T09:17:01.795Z,5.90
2023-05-08T09:19:29.201Z,5.00
2023-05-08T09:22:00.709Z,5.10
2023-05-08T09:25:00.456Z,5.40
2023-05-08T09:27:28.878Z,5.90
2023-05-08T09:30:08.785Z,5.40
2023-05-08T09:32:38.054Z,6.20
2023-05-08T09:35:06.903Z,5.50
2023-05-08T09:37:34.058Z,4.80
2023-05-08T09:40:21.425Z,4.80
2023-05-08T09:42:50.230Z,4.70
2023-05-08T09:45:32.441Z,7.60
2023-05-08T09:47:59.499Z,5.60
2023-05-08T09:50:27.779Z,6.20
2023-05-08T09:52:55.029Z,5.60
2023-05-08T09:55:21.679Z,4.70
2023-05-08T09:57:59.744Z,5.00
2023-05-08T10:00:28.007Z,5.20
2023-05-08T10:03:02.302Z,6.30
2023-05-08T10:05:33.043Z,5.50
2023-05-08T10:08:19.023Z,5.20
2023-05-08T10:10:46.033Z,5.70
2023-05-08T10:13:13.726Z,6.10
2023-05-08T10:15:42.609Z,5.10
2023-05-08T10:18:12.024Z,5.50
2023-05-08T10:20:45.212Z,5.30
2023-05-08T10:23:17.153Z,6.10
2023-05-08T10:25:46.518Z,5.00
2023-05-08T10:28:45.402Z,5.80
2023-05-08T10:31:17.597Z,4.40
2023-05-08T10:33:46.866Z,5.00
2023-05-08T10:36:14.977Z,4.20
2023-05-08T10:38:42.294Z,3.80
2023-05-08T10:41:10.979Z,4.30
2023-05-08T10:43:42.549Z,4.60
2023-05-08T10:46:54.554Z,3.50
2023-05-08T10:49:34.336Z,2.80
2023-05-08T10:52:14.061Z,2.50
2023-05-08T10:55:02.275Z,2.70
2023-05-08T10:57:29.127Z,2.60
2023-05-08T10:59:55.865Z,2.20
2023-05-08T11:02:37.184Z,2.40
2023-05-08T11:05:17.818Z,2.20
2023-05-08T11:07:54.807Z,2.00
2023-05-08T11:10:22.156Z,1.90
2023-05-08T11:12:53.562Z,2.00
2023-05-08T11:15:36.497Z,1.80
2023-05-08T11:18:11.781Z,2.10
2023-05-08T11:20:54.487Z,1.60
2023-05-08T11:23:22.949Z,1.80
2023-05-08T11:26:12.280Z,1.90
2023-05-08T11:28:41.243Z,1.90
2023-05-08T11:31:09.179Z,2.00
2023-05-08T11:33:41.276Z,2.20
2023-05-08T11:36:14.073Z,2.10
2023-05-08T11:38:43.665Z,1.70
2023-05-08T11:41:21.674Z,2.20
2023-05-08T11:44:10.496Z,1.80
2023-05-08T11:46:53.521Z,1.80
2023-05-08T11:49:27.116Z,2.10
2023-05-08T11:51:58.816Z,2.00
2023-05-08T11:54:29.334Z,2.10
2023-05-08T11:56:56.112Z,2.30
2023-05-08T11:59:22.754Z,2.50
2023-05-08T12:02:06.873Z,2.40
2023-05-08T12:04:43.468Z,2.40
2023-05-08T12:07:10.095Z,2.50
2023-05-08T12:09:38.391Z,2.30
2023-05-08T12:12:05.527Z,2.30
2023-05-08T12:14:34.702Z,2.20
2023-05-08T12:17:02.902Z,2.20
2023-05-08T12:19:29.752Z,2.50
2023-05-08T12:21:57.411Z,2.20
2023-05-08T12:24:26.302Z,2.00
2023-05-08T12:26:56.714Z,2.80
2023-05-08T12:29:24.271Z,2.40
2023-05-08T12:31:52.773Z,2.90
2023-05-08T12:34:20.448Z,2.80
2023-05-08T12:36:47.101Z,3.10
2023-05-08T12:39:18.027Z,3.20
2023-05-08T12:41:51.803Z,2.70
2023-05-08T12:44:20.670Z,2.70
2023-05-08T12:46:50.960Z,2.90
2023-05-08T12:49:31.610Z,3.50
2023-05-08T12:52:09.851Z,4.00
2023-05-08T12:54:38.332Z,3.60
2023-05-08T12:57:12.853Z,4.00
2023-05-08T12:59:40.978Z,3.80
2023-05-08T13:02:19.428Z,3.60
2023-05-08T13:04:46.869Z,3.60
2023-05-08T13:07:13.974Z,3.40
2023-05-08T13:09:56.759Z,3.50
2023-05-08T13:12:23.443Z,3.80
2023-05-08T13:14:50.108Z,3.50
2023-05-08T13:17:18.692Z,3.40
2023-05-08T13:19:45.371Z,3.80
2023-05-08T13:22:11.986Z,4.10
2023-05-08T13:24:38.733Z,3.50
2023-05-08T13:27:05.378Z,3.80
2023-05-08T13:29:32.032Z,3.40
2023-05-08T13:31:58.702Z,3.50
2023-05-08T13:34:25.739Z,3.90
2023-05-08T13:36:53.006Z,4.20
2023-05-08T13:39:19.730Z,3.40
2023-05-08T13:41:46.383Z,3.30
2023-05-08T13:44:12.999Z,2.80
2023-05-08T13:46:39.591Z,3.20
2023-05-08T13:49:06.200Z,3.70
2023-05-08T13:51:32.821Z,3.40
2023-05-08T13:53:59.522Z,3.20
2023-05-08T13:56:26.187Z,3.70
2023-05-08T13:58:52.934Z,3.30
2023-05-08T14:01:26.633Z,3.40
2023-05-08T14:03:55.218Z,3.50
2023-05-08T14:06:22.290Z,3.40
2023-05-08T14:08:51.425Z,4.00
2023-05-08T14:11:19.583Z,3.40
2023-05-08T14:13:46.227Z,3.50
2023-05-08T14:16:14.515Z,3.30
2023-05-08T14:18:41.243Z,3.10
2023-05-08T14:21:07.888Z,2.70
2023-05-08T14:23:35.783Z,3.40
2023-05-08T14:26:02.550Z,3.10
2023-05-08T14:28:29.147Z,2.90
2023-05-08T14:30:56.286Z,3.10
2023-05-08T14:33:23.020Z,3.00
2023-05-08T14:35:49.689Z,3.80
2023-05-08T14:38:16.321Z,3.30
2023-05-08T14:40:43.001Z,3.00
2023-05-08T14:43:09.643Z,3.10
2023-05-08T14:45:36.370Z,3.20
2023-05-08T14:48:03.109Z,3.70
2023-05-08T14:50:29.845Z,3.00
2023-05-08T14:52:56.639Z,3.00
2023-05-08T14:55:24.044Z,3.60
2023-05-08T14:57:50.901Z,3.00
2023-05-08T15:00:18.334Z,2.90
2023-05-08T15:02:45.382Z,3.30
2023-05-08T15:07:58.826Z,3.20
2023-05-08T15:10:25.476Z,3.10
2023-05-08T15:12:52.224Z,3.40
2023-05-08T15:15:18.876Z,3.10
2023-05-08T15:17:45.851Z,3.00
2023-05-08T15:20:12.582Z,2.70
2023-05-08T15:22:39.252Z,3.00
2023-05-08T15:25:06.817Z,3.50
2023-05-08T15:27:33.495Z,2.70
2023-05-08T15:30:00.278Z,3.10
2023-05-08T15:32:26.982Z,3.20
2023-05-08T15:34:53.655Z,3.10
2023-05-08T15:37:20.360Z,3.00
2023-05-08T15:39:47.077Z,3.50
2023-05-08T15:42:13.696Z,3.20
2023-05-08T15:47:09.945Z,3.40
2023-05-08T15:49:36.758Z,3.20
2023-05-08T15:52:03.637Z,3.30
2023-05-08T15:54:30.454Z,3.40
2023-05-08T15:56:57.137Z,3.40
2023-05-08T15:59:23.765Z,3.20
2023-05-08T16:01:52.087Z,3.90
2023-05-08T16:04:19.628Z,3.40
2023-05-08T16:06:46.343Z,2.70
2023-05-08T16:09:12.953Z,3.50
2023-05-08T16:11:39.608Z,3.20
2023-05-08T16:14:06.232Z,3.00
2023-05-08T16:16:33.054Z,3.00
2023-05-08T16:19:02.259Z,2.90
2023-05-08T16:21:28.891Z,3.00
2023-05-08T16:23:56.113Z,3.10
2023-05-08T16:26:23.457Z,3.10
2023-05-08T16:28:50.097Z,2.90
2023-05-08T16:31:17.184Z,3.00
2023-05-08T16:33:44.096Z,2.60
2023-05-08T16:36:10.821Z,3.30
2023-05-08T16:38:37.537Z,2.60
2023-05-08T16:41:06.235Z,2.90
2023-05-08T16:43:33.164Z,3.10
2023-05-08T16:45:59.884Z,2.80
2023-05-08T16:48:27.990Z,2.90
2023-05-08T16:50:54.663Z,2.80
2023-05-08T16:53:21.413Z,2.90
2023-05-08T16:55:48.119Z,2.80
2023-05-08T16:58:16.004Z,3.10
2023-05-08T17:00:42.671Z,3.10
2023-05-08T17:03:09.532Z,2.90
2023-05-08T17:05:37.186Z,3.60
2023-05-08T17:08:03.968Z,3.40
2023-05-08T17:10:30.700Z,3.60
2023-05-08T17:12:57.693Z,3.30
2023-05-08T17:15:24.473Z,3.20
2023-05-08T17:17:51.420Z,3.50
2023-05-08T17:20:21.313Z,2.90
2023-05-08T17:22:47.977Z,3.00
2023-05-08T17:25:14.762Z,3.00
2023-05-08T17:27:41.385Z,2.90
2023-05-08T17:30:12.178Z,3.00
2023-05-08T17:32:40.589Z,3.00
2023-05-08T17:35:07.634Z,3.10
2023-05-08T17:37:34.299Z,3.40
2023-05-08T17:40:00.950Z,4.10
2023-05-08T17:42:27.546Z,3.80
2023-05-08T17:44:54.150Z,4.00
2023-05-08T17:47:20.890Z,3.70
2023-05-08T17:49:47.564Z,3.40
2023-05-08T17:52:14.468Z,5.00
2023-05-08T17:54:41.096Z,4.90
2023-05-08T17:57:07.702Z,3.80
2023-05-08T17:59:34.362Z,3.50
2023-05-08T18:02:01.047Z,3.50
2023-05-08T18:04:27.793Z,4.00
2023-05-08T18:06:54.534Z,3.70
2023-05-08T18:09:21.221Z,3.70
2023-05-08T18:11:48.028Z,3.70
2023-05-08T18:14:14.690Z,3.70
2023-05-08T18:16:41.404Z,3.60
2023-05-08T18:19:08.142Z,3.40
2023-05-08T18:21:34.777Z,4.30
2023-05-08T18:24:01.420Z,3.80
2023-05-08T18:26:28.054Z,3.50
2023-05-08T18:28:54.665Z,4.10
2023-05-08T18:31:21.433Z,3.70
2023-05-08T18:33:48.070Z,3.60
2023-05-08T18:36:14.748Z,3.10
2023-05-08T18:38:41.936Z,3.60
2023-05-08T18:41:08.617Z,3.50
2023-05-08T18:43:35.328Z,3.50
2023-05-08T18:46:12.618Z,3.00
2023-05-08T18:48:42.054Z,3.40
2023-05-08T18:51:09.115Z,3.30
2023-05-08T18:53:40.686Z,3.20
2023-05-08T18:56:07.404Z,3.40
2023-05-08T18:58:34.086Z,3.60
2023-05-08T19:01:01.467Z,3.40
2023-05-08T19:03:28.490Z,3.70
2023-05-08T19:05:55.422Z,3.70
2023-05-08T19:08:22.039Z,3.80
2023-05-08T19:10:48.796Z,3.50
2023-05-08T19:13:15.718Z,3.10
2023-05-08T19:15:42.400Z,3.80
2023-05-08T19:18:09.258Z,3.60
2023-05-08T19:20:36.040Z,3.20
2023-05-08T19:23:02.643Z,3.70
2023-05-08T19:25:29.325Z,3.20
2023-05-08T19:27:57.508Z,3.70
2023-05-08T19:30:24.354Z,3.60
2023-05-08T19:32:50.977Z,3.90
2023-05-08T19:35:17.600Z,3.40
2023-05-08T19:37:44.258Z,3.30
2023-05-08T19:40:11.542Z,3.80
2023-05-08T19:42:38.444Z,2.70
2023-05-08T19:45:05.769Z,3.60
2023-05-08T19:47:33.669Z,3.30
2023-05-08T19:50:00.553Z,3.60
2023-05-08T19:52:33.466Z,3.90
2023-05-08T19:55:02.174Z,3.30
2023-05-08T19:57:30.908Z,3.80
2023-05-08T19:59:58.081Z,3.50
2023-05-08T20:02:24.971Z,3.70
2023-05-08T20:05:14.421Z,3.80
2023-05-08T20:07:45.243Z,3.40
2023-05-08T20:10:12.436Z,4.40
2023-05-08T20:12:39.488Z,4.00
2023-05-08T20:15:06.865Z,3.90
2023-05-08T20:17:33.596Z,3.50
2023-05-08T20:20:00.348Z,4.00
2023-05-08T20:22:28.956Z,3.70
2023-05-08T20:24:57.614Z,3.70
2023-05-08T20:27:24.894Z,4.00
2023-05-08T20:29:53.601Z,3.90
2023-05-08T20:32:20.880Z,4.10
2023-05-08T20:34:47.779Z,3.40
2023-05-08T20:37:16.089Z,3.70
2023-05-08T20:39:43.063Z,4.10
2023-05-08T20:42:09.648Z,3.80
2023-05-08T20:44:36.245Z,3.90
2023-05-08T20:47:02.843Z,3.60
2023-05-08T20:49:29.566Z,3.90
2023-05-08T20:51:56.306Z,3.60
2023-05-08T20:54:22.953Z,3.60
2023-05-08T20:56:49.720Z,3.70
2023-05-08T20:59:16.840Z,3.70
2023-05-08T21:01:43.605Z,3.50
2023-05-08T21:04:10.612Z,4.10
2023-05-08T21:06:37.209Z,3.50
2023-05-08T21:09:06.508Z,3.80
2023-05-08T21:11:33.729Z,3.80
2023-05-08T21:14:00.497Z,3.70
2023-05-08T21:16:27.250Z,4.20
2023-05-08T21:18:55.472Z,4.00
2023-05-08T21:21:24.279Z,4.10
2023-05-08T21:23:50.889Z,4.00
2023-05-08T21:26:19.914Z,4.00
2023-05-08T21:28:46.669Z,3.50
2023-05-08T21:31:13.291Z,3.60
2023-05-08T21:33:39.992Z,4.60
2023-05-08T21:36:06.747Z,4.00
2023-05-08T21:38:34.155Z,4.40
2023-05-08T21:41:08.441Z,4.60
2023-05-08T21:43:36.128Z,4.30
2023-05-08T21:46:07.371Z,4.30
2023-05-08T21:48:34.564Z,4.20
2023-05-08T21:51:01.946Z,4.10
2023-05-08T21:53:28.783Z,4.90
2023-05-08T21:55:55.479Z,5.20
2023-05-08T21:58:22.114Z,4.40
2023-05-08T22:00:48.893Z,4.40
2023-05-08T22:03:15.889Z,3.30
2023-05-08T22:05:42.675Z,2.80
2023-05-08T22:08:09.423Z,2.60
2023-05-08T22:10:39.503Z,2.60
2023-05-08T22:13:07.581Z,2.30
2023-05-08T22:15:34.582Z,2.40
2023-05-08T22:18:02.764Z,2.00
2023-05-08T22:20:30.407Z,2.50
2023-05-08T22:22:57.120Z,2.10
2023-05-08T22:25:25.273Z,2.30
2023-05-08T22:27:52.136Z,2.30
2023-05-08T22:30:18.723Z,2.20
2023-05-08T22:32:53.387Z,2.50
2023-05-08T22:35:22.556Z,2.30
2023-05-08T22:37:49.302Z,2.50
2023-05-08T22:40:16.098Z,2.90
2023-05-08T22:42:43.913Z,2.40
2023-05-08T22:45:12.370Z,2.70
2023-05-08T22:47:39.752Z,2.40
2023-05-08T22:50:08.655Z,2.50
2023-05-08T22:52:36.170Z,2.60
2023-05-08T22:55:06.639Z,2.10
2023-05-08T22:57:33.288Z,2.10
2023-05-08T22:59:59.955Z,1.70
2023-05-08T23:02:32.525Z,1.80
2023-05-08T23:05:00.019Z,3.00
2023-05-08T23:07:26.664Z,2.10
2023-05-08T23:09:53.302Z,2.00
2023-05-08T23:12:19.929Z,2.00
2023-05-08T23:14:46.564Z,1.80
2023-05-08T23:17:14.147Z,2.00
2023-05-08T23:19:42.258Z,2.30
2023-05-08T23:22:09.542Z,1.80
2023-05-08T23:24:36.620Z,1.70
2023-05-08T23:27:03.428Z,2.10
2023-05-08T23:29:33.337Z,1.90
2023-05-08T23:32:00.179Z,2.20
2023-05-08T23:34:26.820Z,1.90
2023-05-08T23:36:53.461Z,1.80
2023-05-08T23:39:20.100Z,2.10
2023-05-08T23:41:46.763Z,2.20
2023-05-08T23:44:14.585Z,2.00
2023-05-08T23:46:41.856Z,1.90
2023-05-08T23:49:08.674Z,2.00
2023-05-08T23:51:35.553Z,1.70
2023-05-08T23:54:02.293Z,1.80
2023-05-08T23:56:30.174Z,1.90
2023-05-08T23:58:57.175Z,1.80
